createdAt,value
2023-06-17T00:00:55.732Z,3.97
2023-06-17T00:03:22.284Z,3.87
2023-06-17T00:05:48.749Z,3.80
2023-06-17T00:08:15.309Z,4.18
2023-06-17T00:10:41.765Z,3.53
2023-06-17T00:13:08.682Z,3.80
2023-06-17T00:15:37.660Z,3.70
2023-06-17T00:18:06.462Z,3.72
2023-06-17T00:20:33.847Z,3.33
2023-06-17T00:23:00.295Z,3.88
2023-06-17T00:25:26.702Z,3.92
2023-06-17T00:27:53.114Z,3.77
2023-06-17T00:30:19.877Z,4.07
2023-06-17T00:32:46.609Z,4.32
2023-06-17T00:35:13.125Z,4.32
2023-06-17T00:37:39.672Z,4.65
2023-06-17T00:40:09.063Z,4.33
2023-06-17T00:42:36.139Z,4.20
2023-06-17T00:45:02.647Z,4.38
2023-06-17T00:47:29.258Z,4.20
2023-06-17T00:49:55.809Z,4.20
2023-06-17T00:52:40.118Z,4.17
2023-06-17T00:55:09.852Z,4.30
2023-06-17T00:57:38.526Z,4.32
2023-06-17T01:00:10.874Z,4.35
2023-06-17T01:02:41.491Z,4.30
2023-06-17T01:05:13.833Z,4.43
2023-06-17T01:07:57.356Z,4.75
2023-06-17T01:10:59.189Z,4.40
2023-06-17T01:13:27.857Z,4.10
2023-06-17T01:15:55.105Z,3.97
2023-06-17T01:18:22.216Z,4.23
2023-06-17T01:20:54.560Z,4.05
2023-06-17T01:23:22.406Z,4.32
2023-06-17T01:25:50.697Z,4.50
2023-06-17T01:28:17.862Z,4.30
2023-06-17T01:30:45.914Z,4.27
2023-06-17T01:33:14.733Z,4.30
2023-06-17T01:35:47.094Z,4.10
2023-06-17T01:38:21.989Z,3.90
2023-06-17T01:40:53.183Z,4.38
2023-06-17T01:43:20.841Z,4.40
2023-06-17T01:45:47.731Z,3.90
2023-06-17T01:48:14.370Z,3.97
2023-06-17T01:50:40.770Z,4.82
2023-06-17T01:53:07.152Z,4.32
2023-06-17T01:55:33.613Z,4.20
2023-06-17T01:57:59.985Z,4.43
2023-06-17T02:00:27.652Z,4.30
2023-06-17T02:02:54.210Z,4.40
2023-06-17T02:05:21.272Z,4.68
2023-06-17T02:07:48.823Z,4.37
2023-06-17T02:10:16.465Z,4.60
2023-06-17T02:12:42.965Z,4.70
2023-06-17T02:15:10.008Z,4.53
2023-06-17T02:17:36.689Z,4.75
2023-06-17T02:20:07.382Z,4.67
2023-06-17T02:22:33.930Z,4.50
2023-06-17T02:25:00.508Z,4.75
2023-06-17T02:27:26.896Z,3.88
2023-06-17T02:29:53.329Z,4.78
2023-06-17T02:32:19.743Z,4.83
2023-06-17T02:34:49.155Z,4.15
2023-06-17T02:37:16.384Z,4.90
2023-06-17T02:39:43.389Z,4.45
2023-06-17T02:42:09.994Z,4.40
2023-06-17T02:44:37.055Z,4.23
2023-06-17T02:47:04.378Z,4.32
2023-06-17T02:49:30.970Z,4.68
2023-06-17T02:51:57.352Z,4.18
2023-06-17T02:54:23.776Z,4.57
2023-06-17T02:56:50.272Z,4.70
2023-06-17T02:59:16.787Z,4.50
2023-06-17T03:01:44.488Z,4.60
2023-06-17T03:04:14.278Z,4.07
2023-06-17T03:06:45.574Z,4.50
2023-06-17T03:09:12.176Z,4.53
2023-06-17T03:11:38.678Z,4.45
2023-06-17T03:14:05.075Z,4.07
2023-06-17T03:16:34.994Z,4.18
2023-06-17T03:19:02.381Z,4.10
2023-06-17T03:21:30.666Z,4.40
2023-06-17T03:24:00.436Z,4.43
2023-06-17T03:26:27.124Z,4.25
2023-06-17T03:28:54.347Z,4.30
2023-06-17T03:31:22.582Z,4.60
2023-06-17T03:33:51.706Z,3.93
2023-06-17T03:36:25.876Z,4.55
2023-06-17T03:38:52.428Z,4.63
2023-06-17T03:41:18.843Z,4.60
2023-06-17T03:43:45.433Z,4.50
2023-06-17T03:46:11.828Z,4.67
2023-06-17T03:48:38.212Z,4.63
2023-06-17T03:51:04.624Z,4.20
2023-06-17T03:53:31.068Z,4.47
2023-06-17T03:55:57.562Z,4.68
2023-06-17T03:58:23.968Z,4.67
2023-06-17T04:00:50.380Z,4.65
2023-06-17T04:03:16.988Z,4.78
2023-06-17T04:05:43.961Z,4.20
2023-06-17T04:08:10.504Z,4.10
2023-06-17T04:10:37.115Z,4.40
2023-06-17T04:13:03.827Z,4.32
2023-06-17T04:15:30.389Z,4.18
2023-06-17T04:17:58.457Z,4.57
2023-06-17T04:20:26.746Z,4.45
2023-06-17T04:22:53.381Z,4.53
2023-06-17T04:25:21.895Z,4.38
2023-06-17T04:27:50.100Z,4.55
2023-06-17T04:30:17.446Z,4.70
2023-06-17T04:32:44.661Z,4.18
2023-06-17T04:35:12.154Z,4.33
2023-06-17T04:37:38.708Z,4.80
2023-06-17T04:40:08.436Z,4.50
2023-06-17T04:42:34.897Z,4.90
2023-06-17T04:45:02.735Z,4.70
2023-06-17T04:47:29.654Z,4.80
2023-06-17T04:49:56.834Z,4.35
2023-06-17T04:52:25.717Z,4.88
2023-06-17T04:54:52.744Z,4.60
2023-06-17T04:57:19.648Z,4.45
2023-06-17T04:59:46.159Z,5.00
2023-06-17T05:02:12.732Z,4.70
2023-06-17T05:04:39.131Z,4.82
2023-06-17T05:07:05.861Z,4.80
2023-06-17T05:09:32.294Z,5.28
2023-06-17T05:11:58.736Z,5.10
2023-06-17T05:14:25.469Z,4.88
2023-06-17T05:16:51.885Z,5.10
2023-06-17T05:19:18.634Z,4.82
2023-06-17T05:21:45.027Z,4.70
2023-06-17T05:24:11.474Z,4.80
2023-06-17T05:26:37.914Z,4.38
2023-06-17T05:29:04.299Z,5.00
2023-06-17T05:31:30.836Z,5.00
2023-06-17T05:33:57.269Z,5.15
2023-06-17T05:36:26.282Z,4.70
2023-06-17T05:38:53.029Z,4.60
2023-06-17T05:41:19.433Z,5.13
2023-06-17T05:43:47.400Z,4.43
2023-06-17T05:46:13.861Z,4.68
2023-06-17T05:48:40.373Z,4.80
2023-06-17T05:51:07.093Z,4.95
2023-06-17T05:53:33.567Z,4.80
2023-06-17T05:55:59.991Z,4.75
2023-06-17T05:58:26.451Z,4.80
2023-06-17T06:00:52.919Z,4.70
2023-06-17T06:03:19.389Z,4.63
2023-06-17T06:05:45.900Z,5.15
2023-06-17T06:08:12.298Z,4.78
2023-06-17T06:10:38.690Z,4.63
2023-06-17T06:13:05.848Z,5.10
2023-06-17T06:15:33.540Z,4.90
2023-06-17T06:18:00.030Z,5.28
2023-06-17T06:20:27.227Z,4.60
2023-06-17T06:22:54.398Z,4.93
2023-06-17T06:25:20.995Z,5.17
2023-06-17T06:27:50.650Z,4.88
2023-06-17T06:30:17.135Z,4.63
2023-06-17T06:32:43.593Z,4.70
2023-06-17T06:35:10.047Z,4.65
2023-06-17T06:37:36.459Z,4.93
2023-06-17T06:40:06.372Z,5.03
2023-06-17T06:42:32.752Z,5.05
2023-06-17T06:44:59.152Z,4.80
2023-06-17T06:47:25.713Z,5.20
2023-06-17T06:49:52.135Z,4.50
2023-06-17T06:52:18.572Z,4.68
2023-06-17T06:54:44.971Z,5.25
2023-06-17T06:57:11.389Z,4.72
2023-06-17T06:59:37.828Z,4.60
2023-06-17T07:02:04.410Z,4.90
2023-06-17T07:04:31.421Z,4.60
2023-06-17T07:06:57.876Z,4.82
2023-06-17T07:09:24.268Z,4.47
2023-06-17T07:11:50.808Z,4.70
2023-06-17T07:14:17.199Z,4.70
2023-06-17T07:16:43.642Z,5.38
2023-06-17T07:19:10.091Z,5.20
2023-06-17T07:21:36.496Z,4.82
2023-06-17T07:24:02.986Z,4.90
2023-06-17T07:26:29.441Z,4.77
2023-06-17T07:28:56.347Z,4.30
2023-06-17T07:31:24.172Z,4.70
2023-06-17T07:33:52.650Z,4.38
2023-06-17T07:36:24.382Z,5.00
2023-06-17T07:38:51.607Z,4.80
2023-06-17T07:41:18.589Z,5.20
2023-06-17T07:43:44.973Z,4.95
2023-06-17T07:46:11.509Z,4.57
2023-06-17T07:48:38.023Z,4.93
2023-06-17T07:51:04.433Z,4.20
2023-06-17T07:53:30.826Z,4.50
2023-06-17T07:55:57.217Z,4.50
2023-06-17T07:58:23.618Z,4.50
2023-06-17T08:00:50.076Z,5.10
2023-06-17T08:03:16.614Z,4.80
2023-06-17T08:05:43.217Z,4.90
2023-06-17T08:08:09.624Z,4.82
2023-06-17T08:10:36.146Z,4.53
2023-06-17T08:13:02.731Z,4.70
2023-06-17T08:15:29.334Z,4.70
2023-06-17T08:17:55.822Z,4.28
2023-06-17T08:20:22.977Z,4.63
2023-06-17T08:22:49.811Z,4.43
2023-06-17T08:25:16.332Z,4.80
2023-06-17T08:27:48.568Z,4.40
2023-06-17T08:30:15.106Z,4.20
2023-06-17T08:32:42.165Z,4.60
2023-06-17T08:35:08.676Z,4.35
2023-06-17T08:37:35.099Z,4.82
2023-06-17T08:40:01.796Z,4.30
2023-06-17T08:42:29.082Z,4.25
2023-06-17T08:44:58.421Z,4.78
2023-06-17T08:47:25.831Z,4.50
2023-06-17T08:49:55.644Z,4.40
2023-06-17T08:52:22.836Z,4.37
2023-06-17T08:54:50.025Z,4.80
2023-06-17T08:57:18.727Z,4.40
2023-06-17T08:59:45.478Z,4.32
2023-06-17T09:02:12.098Z,4.68
2023-06-17T09:04:38.689Z,3.97
2023-06-17T09:07:05.518Z,3.85
2023-06-17T09:09:31.938Z,4.80
2023-06-17T09:12:06.100Z,4.65
2023-06-17T09:14:33.684Z,4.40
2023-06-17T09:17:01.946Z,4.27
2023-06-17T09:19:31.557Z,4.20
2023-06-17T09:22:05.270Z,4.30
2023-06-17T09:24:31.910Z,4.28
2023-06-17T09:26:58.541Z,4.30
2023-06-17T09:29:25.019Z,4.40
2023-06-17T09:31:56.234Z,3.90
2023-06-17T09:34:23.357Z,4.50
2023-06-17T09:37:02.754Z,4.80
2023-06-17T09:39:33.291Z,3.80
2023-06-17T09:42:18.005Z,4.33
2023-06-17T09:44:47.718Z,4.30
2023-06-17T09:47:14.686Z,4.60
2023-06-17T09:49:44.759Z,4.22
2023-06-17T09:52:11.902Z,4.30
2023-06-17T09:54:39.237Z,4.37
2023-06-17T09:57:08.625Z,4.10
2023-06-17T09:59:35.236Z,4.50
2023-06-17T10:02:01.648Z,4.10
2023-06-17T10:04:28.110Z,4.25
2023-06-17T10:06:54.753Z,4.40
2023-06-17T10:09:21.454Z,4.90
2023-06-17T10:11:53.902Z,4.60
2023-06-17T10:14:30.791Z,4.97
2023-06-17T10:16:58.357Z,3.90
2023-06-17T10:19:30.079Z,3.97
2023-06-17T10:21:59.632Z,4.38
2023-06-17T10:24:27.330Z,4.18
2023-06-17T10:26:54.513Z,4.07
2023-06-17T10:29:21.867Z,4.60
2023-06-17T10:31:48.508Z,4.43
2023-06-17T10:34:16.909Z,4.72
2023-06-17T10:36:43.519Z,4.30
2023-06-17T10:39:12.174Z,4.50
2023-06-17T10:41:41.573Z,4.18
2023-06-17T10:44:35.235Z,4.20
2023-06-17T10:47:03.233Z,4.43
2023-06-17T10:49:43.152Z,4.28
2023-06-17T10:52:14.127Z,4.28
2023-06-17T10:54:52.869Z,4.53
2023-06-17T10:57:32.713Z,4.70
2023-06-17T11:00:11.200Z,4.50
2023-06-17T11:02:38.885Z,4.35
2023-06-17T11:05:09.623Z,4.13
2023-06-17T11:07:37.317Z,4.70
2023-06-17T11:10:04.366Z,4.57
2023-06-17T11:12:31.032Z,4.55
2023-06-17T11:15:01.116Z,4.20
2023-06-17T11:17:28.023Z,4.53
2023-06-17T11:19:54.472Z,4.30
2023-06-17T11:22:20.900Z,4.60
2023-06-17T11:24:47.547Z,4.18
2023-06-17T11:27:14.062Z,4.68
2023-06-17T11:29:44.546Z,4.50
2023-06-17T11:32:11.367Z,4.40
2023-06-17T11:34:37.849Z,4.13
2023-06-17T11:37:07.672Z,4.40
2023-06-17T11:39:35.641Z,4.18
2023-06-17T11:42:04.496Z,4.80
2023-06-17T11:44:35.044Z,4.22
2023-06-17T11:47:09.837Z,3.83
2023-06-17T11:49:36.770Z,3.90
2023-06-17T11:52:10.883Z,4.00
2023-06-17T11:54:46.822Z,3.90
2023-06-17T11:57:18.713Z,4.20
2023-06-17T11:59:45.588Z,4.20
2023-06-17T12:02:12.733Z,4.30
2023-06-17T12:04:39.873Z,3.90
2023-06-17T12:07:07.615Z,3.85
2023-06-17T12:09:49.775Z,4.22
2023-06-17T12:12:36.544Z,3.97
2023-06-17T12:15:15.011Z,3.85
2023-06-17T12:17:47.526Z,3.58
2023-06-17T12:20:18.026Z,3.40
2023-06-17T12:22:45.451Z,3.45
2023-06-17T12:25:12.625Z,3.53
2023-06-17T12:27:40.175Z,3.55
2023-06-17T12:30:07.988Z,4.10
2023-06-17T12:32:35.308Z,3.40
2023-06-17T12:35:02.009Z,3.13
2023-06-17T12:37:30.022Z,2.97
2023-06-17T12:39:59.306Z,3.35
2023-06-17T12:42:26.445Z,3.40
2023-06-17T12:44:53.388Z,3.38
2023-06-17T12:47:20.350Z,3.30
2023-06-17T12:49:47.670Z,3.33
2023-06-17T12:52:14.631Z,3.63
2023-06-17T12:54:43.333Z,3.40
2023-06-17T12:57:10.378Z,3.38
2023-06-17T12:59:37.108Z,2.90
2023-06-17T13:02:03.906Z,3.07
2023-06-17T13:04:30.895Z,3.40
2023-06-17T13:06:58.268Z,3.40
2023-06-17T13:09:25.174Z,3.70
2023-06-17T13:11:53.052Z,3.70
2023-06-17T13:14:20.685Z,3.43
2023-06-17T13:16:47.891Z,3.33
2023-06-17T13:19:16.858Z,3.80
2023-06-17T13:21:44.140Z,2.97
2023-06-17T13:24:10.592Z,3.30
2023-06-17T13:26:37.565Z,3.90
2023-06-17T13:29:04.591Z,3.30
2023-06-17T13:31:31.782Z,3.90
2023-06-17T13:33:58.301Z,3.67
2023-06-17T13:36:26.216Z,3.70
2023-06-17T13:38:53.014Z,3.63
2023-06-17T13:41:19.674Z,3.97
2023-06-17T13:43:46.225Z,3.67
2023-06-17T13:46:12.776Z,3.88
2023-06-17T13:48:39.169Z,4.10
2023-06-17T13:51:05.615Z,3.70
2023-06-17T13:53:32.248Z,4.00
2023-06-17T13:55:59.576Z,3.70
2023-06-17T13:58:26.353Z,4.43
2023-06-17T14:00:53.493Z,4.30
2023-06-17T14:03:20.992Z,4.00
2023-06-17T14:05:47.956Z,4.47
2023-06-17T14:08:14.628Z,4.32
2023-06-17T14:10:41.584Z,4.20
2023-06-17T14:13:08.224Z,4.43
2023-06-17T14:15:34.727Z,4.33
2023-06-17T14:18:01.687Z,4.60
2023-06-17T14:20:28.244Z,4.97
2023-06-17T14:22:57.734Z,4.13
2023-06-17T14:25:25.553Z,4.15
2023-06-17T14:27:53.168Z,4.60
2023-06-17T14:30:20.317Z,4.32
2023-06-17T14:32:49.088Z,5.00
2023-06-17T14:35:18.693Z,4.63
2023-06-17T14:37:46.957Z,4.28
2023-06-17T14:40:14.784Z,4.30
2023-06-17T14:42:41.671Z,4.72
2023-06-17T14:45:09.863Z,4.00
2023-06-17T14:47:36.890Z,4.30
2023-06-17T14:50:04.380Z,4.45
2023-06-17T14:52:30.938Z,4.13
2023-06-17T14:54:57.376Z,4.30
2023-06-17T14:57:23.941Z,4.53
2023-06-17T14:59:50.755Z,4.70
2023-06-17T15:02:54.295Z,4.47
2023-06-17T15:05:21.386Z,4.30
2023-06-17T15:07:49.734Z,4.80
2023-06-17T15:10:16.405Z,4.80
2023-06-17T15:12:43.204Z,4.65
2023-06-17T15:15:11.939Z,4.40
2023-06-17T15:17:38.992Z,4.20
2023-06-17T15:20:06.444Z,4.75
2023-06-17T15:22:32.836Z,4.85
2023-06-17T15:24:59.233Z,4.88
2023-06-17T15:27:25.660Z,4.78
2023-06-17T15:29:52.061Z,4.90
2023-06-17T15:32:19.633Z,4.50
2023-06-17T15:34:47.929Z,4.72
2023-06-17T15:37:14.420Z,4.90
2023-06-17T15:39:40.935Z,5.25
2023-06-17T15:42:07.628Z,4.47
2023-06-17T15:44:34.099Z,4.50
2023-06-17T15:47:00.519Z,4.80
2023-06-17T15:49:26.920Z,4.70
2023-06-17T15:51:53.302Z,4.57
2023-06-17T15:54:26.278Z,4.90
2023-06-17T15:56:53.010Z,5.00
2023-06-17T15:59:19.456Z,4.32
2023-06-17T16:01:46.432Z,4.60
2023-06-17T16:04:42.540Z,4.57
2023-06-17T16:07:11.476Z,5.50
2023-06-17T16:09:48.828Z,10.32
2023-06-17T16:12:16.775Z,6.35
2023-06-17T16:14:44.774Z,4.70
2023-06-17T16:17:11.900Z,4.90
2023-06-17T16:19:39.067Z,4.67
2023-06-17T16:22:13.312Z,4.70
2023-06-17T16:24:41.569Z,4.93
2023-06-17T16:27:08.225Z,5.10
2023-06-17T16:29:34.779Z,4.93
2023-06-17T16:32:01.284Z,4.63
2023-06-17T16:34:28.088Z,4.45
2023-06-17T16:36:54.608Z,4.80
2023-06-17T16:39:21.392Z,4.60
2023-06-17T16:41:47.906Z,4.68
2023-06-17T16:44:14.321Z,4.60
2023-06-17T16:46:41.189Z,4.63
2023-06-17T16:49:07.613Z,5.10
2023-06-17T16:51:34.115Z,4.30
2023-06-17T16:54:03.678Z,4.60
2023-06-17T16:56:31.899Z,4.70
2023-06-17T16:58:58.430Z,4.38
2023-06-17T17:01:25.042Z,4.47
2023-06-17T17:03:51.817Z,4.80
2023-06-17T17:06:18.353Z,4.95
2023-06-17T17:08:48.991Z,4.47
2023-06-17T17:11:15.733Z,4.57
2023-06-17T17:13:48.751Z,4.78
2023-06-17T17:16:16.973Z,4.40
2023-06-17T17:18:43.432Z,5.10
2023-06-17T17:21:09.849Z,4.77
2023-06-17T17:23:36.316Z,4.90
2023-06-17T17:26:02.742Z,4.50
2023-06-17T17:28:29.731Z,4.43
2023-06-17T17:30:56.260Z,4.00
2023-06-17T17:33:23.955Z,4.30
2023-06-17T17:35:51.286Z,5.55
2023-06-17T17:38:17.678Z,7.68
2023-06-17T17:40:44.076Z,6.30
2023-06-17T17:43:10.571Z,5.35
2023-06-17T17:45:37.017Z,6.87
2023-06-17T17:48:03.614Z,6.25
2023-06-17T17:50:30.059Z,5.90
2023-06-17T17:52:56.492Z,4.60
2023-06-17T17:55:22.945Z,4.50
2023-06-17T17:57:49.333Z,4.17
2023-06-17T18:00:16.093Z,4.10
2023-06-17T18:02:42.556Z,4.05
2023-06-17T18:05:09.418Z,4.30
2023-06-17T18:07:36.100Z,4.35
2023-06-17T18:10:03.775Z,4.17
2023-06-17T18:12:30.506Z,4.07
2023-06-17T18:14:57.404Z,4.10
2023-06-17T18:17:23.982Z,4.45
2023-06-17T18:19:50.421Z,3.60
2023-06-17T18:22:16.918Z,4.50
2023-06-17T18:24:43.312Z,4.00
2023-06-17T18:27:10.669Z,4.10
2023-06-17T18:29:38.017Z,3.85
2023-06-17T18:32:05.179Z,4.78
2023-06-17T18:34:31.559Z,4.27
2023-06-17T18:36:57.969Z,4.22
2023-06-17T18:39:24.379Z,4.10
2023-06-17T18:41:51.041Z,3.95
2023-06-17T18:44:17.517Z,4.22
2023-06-17T18:46:44.060Z,4.30
2023-06-17T18:49:21.218Z,4.43
2023-06-17T18:51:47.869Z,4.40
2023-06-17T18:54:14.295Z,4.03
2023-06-17T18:56:40.816Z,4.18
2023-06-17T18:59:07.350Z,4.13
2023-06-17T19:01:35.169Z,4.05
2023-06-17T19:04:04.756Z,4.93
2023-06-17T19:06:31.146Z,3.85
2023-06-17T19:08:57.585Z,4.63
2023-06-17T19:11:24.049Z,4.50
2023-06-17T19:13:50.494Z,4.38
2023-06-17T19:16:18.183Z,4.57
2023-06-17T19:18:44.965Z,4.28
2023-06-17T19:21:11.437Z,4.50
2023-06-17T19:23:37.829Z,4.53
2023-06-17T19:26:04.269Z,4.15
2023-06-17T19:28:30.718Z,4.38
2023-06-17T19:30:57.154Z,4.15
2023-06-17T19:33:23.695Z,4.00
2023-06-17T19:35:50.217Z,4.30
2023-06-17T19:38:16.750Z,4.45
2023-06-17T19:40:43.185Z,4.50
2023-06-17T19:43:09.629Z,4.07
2023-06-17T19:45:37.209Z,4.50
2023-06-17T19:48:04.977Z,4.40
2023-06-17T19:50:33.429Z,4.32
2023-06-17T19:53:00.378Z,4.00
2023-06-17T19:55:26.792Z,4.65
2023-06-17T19:57:53.391Z,4.00
2023-06-17T20:00:20.071Z,4.37
2023-06-17T20:02:47.187Z,4.30
2023-06-17T20:05:13.648Z,4.40
2023-06-17T20:07:40.071Z,4.43
2023-06-17T20:10:06.993Z,4.30
2023-06-17T20:12:33.406Z,4.40
2023-06-17T20:14:59.831Z,4.47
2023-06-17T20:17:27.005Z,4.57
2023-06-17T20:19:56.402Z,4.90
2023-06-17T20:22:24.304Z,4.40
2023-06-17T20:24:50.867Z,4.50
2023-06-17T20:27:17.322Z,4.78
2023-06-17T20:29:44.273Z,4.88
2023-06-17T20:32:12.143Z,4.55
2023-06-17T20:34:38.679Z,4.72
2023-06-17T20:37:05.447Z,4.90
2023-06-17T20:39:31.887Z,4.60
2023-06-17T20:41:58.926Z,5.00
2023-06-17T20:44:25.633Z,5.38
2023-06-17T20:46:53.479Z,4.75
2023-06-17T20:49:20.003Z,5.17
2023-06-17T20:51:46.402Z,4.40
2023-06-17T20:54:12.876Z,4.38
2023-06-17T20:56:39.442Z,4.70
2023-06-17T20:59:06.488Z,4.60
2023-06-17T21:01:32.891Z,4.33
2023-06-17T21:03:59.359Z,4.40
2023-06-17T21:06:25.848Z,4.50
2023-06-17T21:08:52.288Z,4.43
2023-06-17T21:11:18.818Z,4.47
2023-06-17T21:13:45.412Z,4.50
2023-06-17T21:16:11.856Z,4.47
2023-06-17T21:18:38.344Z,4.68
2023-06-17T21:21:04.740Z,4.55
2023-06-17T21:23:31.235Z,4.18
2023-06-17T21:26:00.301Z,4.30
2023-06-17T21:28:27.190Z,4.30
2023-06-17T21:30:53.613Z,4.38
2023-06-17T21:33:19.996Z,3.85
2023-06-17T21:35:46.431Z,4.20
2023-06-17T21:38:12.829Z,4.13
2023-06-17T21:40:39.232Z,4.25
2023-06-17T21:43:05.623Z,4.40
2023-06-17T21:45:32.023Z,3.75
2023-06-17T21:47:58.536Z,4.13
2023-06-17T21:50:24.955Z,4.00
2023-06-17T21:52:51.351Z,4.20
2023-06-17T21:55:17.771Z,3.97
2023-06-17T21:57:44.261Z,4.18
2023-06-17T22:00:14.438Z,3.88
2023-06-17T22:02:41.872Z,4.00
2023-06-17T22:05:08.900Z,3.85
2023-06-17T22:07:35.958Z,4.03
2023-06-17T22:10:02.584Z,3.90
2023-06-17T22:12:29.017Z,4.10
2023-06-17T22:14:55.513Z,3.57
2023-06-17T22:17:22.159Z,3.60
2023-06-17T22:19:48.784Z,3.55
2023-06-17T22:22:15.264Z,3.72
2023-06-17T22:24:42.440Z,3.88
2023-06-17T22:27:12.775Z,3.67
2023-06-17T22:29:39.173Z,3.50
2023-06-17T22:32:06.128Z,3.88
2023-06-17T22:34:32.624Z,3.30
2023-06-17T22:36:59.661Z,3.90
2023-06-17T22:39:26.040Z,3.50
2023-06-17T22:41:52.481Z,3.75
2023-06-17T22:44:18.872Z,3.70
2023-06-17T22:46:45.354Z,3.50
2023-06-17T22:49:11.780Z,3.45
2023-06-17T22:51:38.850Z,3.40
2023-06-17T22:54:05.632Z,3.30
2023-06-17T22:56:32.041Z,3.83
2023-06-17T22:58:58.411Z,3.63
2023-06-17T23:01:24.812Z,3.60
2023-06-17T23:03:51.227Z,3.83
2023-06-17T23:06:17.624Z,4.00
2023-06-17T23:08:44.018Z,3.35
2023-06-17T23:11:10.428Z,3.40
2023-06-17T23:13:36.826Z,3.42
2023-06-17T23:16:03.388Z,3.40
2023-06-17T23:18:29.816Z,3.72
2023-06-17T23:20:56.230Z,3.45
2023-06-17T23:23:22.656Z,3.50
2023-06-17T23:25:50.649Z,3.80
2023-06-17T23:28:19.025Z,3.73
2023-06-17T23:30:45.661Z,3.40
2023-06-17T23:33:14.820Z,3.90
2023-06-17T23:35:42.271Z,3.40
2023-06-17T23:38:08.689Z,3.70
2023-06-17T23:40:35.281Z,3.40
2023-06-17T23:43:01.823Z,3.70
2023-06-17T23:45:28.909Z,3.95
2023-06-17T23:47:55.499Z,3.78
2023-06-17T23:50:22.958Z,4.00
2023-06-17T23:52:49.654Z,3.50
2023-06-17T23:55:16.217Z,3.60
2023-06-17T23:57:42.997Z,3.13
